createdAt,value
2019-04-25T00:00:42.224Z,16.40
2019-04-25T00:01:42.519Z,17.10
2019-04-25T00:02:42.660Z,16.70
2019-04-25T00:03:42.533Z,16.40
2019-04-25T00:04:42.621Z,15.80
2019-04-25T00:05:42.742Z,16.50
2019-04-25T00:06:42.880Z,17.10
2019-04-25T00:07:42.525Z,16.90
2019-04-25T00:08:43.072Z,16.30
2019-04-25T00:09:42.728Z,18.00
2019-04-25T00:10:42.696Z,16.90
2019-04-25T00:11:43.662Z,17.90
2019-04-25T00:12:43.177Z,16.50
2019-04-25T00:13:41.939Z,16.60
2019-04-25T00:14:42.242Z,16.50
2019-04-25T00:15:41.939Z,17.10
2019-04-25T00:16:42.832Z,17.00
2019-04-25T00:17:42.315Z,16.00
2019-04-25T00:18:42.761Z,17.70
2019-04-25T00:19:42.473Z,17.60
2019-04-25T00:20:42.633Z,18.30
2019-04-25T00:21:42.521Z,18.00
2019-04-25T00:22:42.574Z,18.70
2019-04-25T00:23:42.586Z,16.40
2019-04-25T00:24:42.965Z,17.60
2019-04-25T00:25:44.452Z,18.20
2019-04-25T00:26:42.594Z,17.20
2019-04-25T00:27:43.274Z,15.20
2019-04-25T00:28:43.522Z,15.80
2019-04-25T00:29:43.374Z,16.20
2019-04-25T00:30:42.679Z,16.10
2019-04-25T00:31:43.268Z,16.00
2019-04-25T00:32:42.169Z,16.20
2019-04-25T00:33:42.002Z,15.40
2019-04-25T00:34:43.175Z,16.00
2019-04-25T00:35:42.532Z,15.20
2019-04-25T00:36:43.166Z,15.70
2019-04-25T00:37:43.066Z,15.40
2019-04-25T00:38:42.664Z,15.10
2019-04-25T00:39:41.327Z,15.90
2019-04-25T00:40:42.694Z,15.20
2019-04-25T00:41:42.364Z,14.60
2019-04-25T00:42:42.768Z,14.20
2019-04-25T00:43:42.199Z,15.30
2019-04-25T00:44:42.838Z,16.20
2019-04-25T00:45:42.396Z,16.60
2019-04-25T00:46:43.338Z,16.10
2019-04-25T00:47:42.437Z,15.80
2019-04-25T00:48:42.390Z,18.80
2019-04-25T00:49:42.104Z,19.70
2019-04-25T00:50:42.458Z,18.90
2019-04-25T00:51:41.840Z,18.50
2019-04-25T00:52:42.408Z,16.30
2019-04-25T00:53:41.813Z,16.20
2019-04-25T00:54:41.438Z,15.10
2019-04-25T00:55:41.457Z,14.60
2019-04-25T00:56:40.244Z,13.90
2019-04-25T00:57:41.806Z,13.80
2019-04-25T00:58:40.197Z,13.70
2019-04-25T00:59:41.767Z,13.30
2019-04-25T01:00:41.573Z,12.60
2019-04-25T01:01:41.408Z,12.40
2019-04-25T01:02:40.104Z,12.20
2019-04-25T01:03:40.078Z,12.20
2019-04-25T01:04:41.813Z,11.70
2019-04-25T01:05:40.029Z,12.10
2019-04-25T01:06:41.580Z,12.20
2019-04-25T01:07:39.983Z,12.10
2019-04-25T01:08:41.419Z,11.60
2019-04-25T01:09:39.939Z,12.60
2019-04-25T01:10:41.549Z,12.10
2019-04-25T01:11:39.893Z,12.20
2019-04-25T01:12:41.610Z,13.30
2019-04-25T01:13:39.840Z,14.20
2019-04-25T01:14:41.868Z,15.00
2019-04-25T01:15:39.811Z,14.30
2019-04-25T01:16:39.767Z,15.50
2019-04-25T01:17:41.221Z,14.00
2019-04-25T01:18:39.721Z,13.80
2019-04-25T01:19:39.696Z,12.60
2019-04-25T01:20:39.669Z,11.50
2019-04-25T01:21:39.646Z,12.10
2019-04-25T01:22:39.621Z,12.10
2019-04-25T01:23:39.599Z,11.90
2019-04-25T01:24:39.574Z,11.40
2019-04-25T01:25:42.543Z,11.70
2019-04-25T01:26:39.528Z,11.10
2019-04-25T01:27:39.500Z,10.10
2019-04-25T01:28:39.475Z,10.60
2019-04-25T01:29:39.450Z,10.00
2019-04-25T01:30:39.428Z,10.10
2019-04-25T01:31:39.402Z,9.50
2019-04-25T01:32:39.381Z,10.00
2019-04-25T01:33:39.352Z,8.80
2019-04-25T01:34:39.331Z,9.90
2019-04-25T01:35:39.304Z,9.90
2019-04-25T01:36:39.280Z,9.30
2019-04-25T01:37:39.256Z,9.10
2019-04-25T01:38:39.231Z,9.00
2019-04-25T01:39:39.206Z,9.40
2019-04-25T01:40:39.182Z,8.70
2019-04-25T01:41:39.156Z,8.40
2019-04-25T01:42:39.131Z,8.50
2019-04-25T01:43:39.107Z,8.70
2019-04-25T01:44:39.081Z,8.80
2019-04-25T01:45:39.057Z,8.40
2019-04-25T01:46:39.031Z,8.10
2019-04-25T01:47:39.006Z,7.80
2019-04-25T01:48:38.982Z,8.10
2019-04-25T01:49:38.959Z,7.30
2019-04-25T01:50:38.932Z,8.10
2019-04-25T01:51:38.909Z,7.80
2019-04-25T01:52:38.882Z,7.70
2019-04-25T01:53:38.858Z,7.30
2019-04-25T01:54:38.833Z,7.60
2019-04-25T01:55:50.912Z,7.20
2019-04-25T01:56:38.785Z,6.90
2019-04-25T01:57:38.758Z,7.20
2019-04-25T01:58:38.733Z,7.30
2019-04-25T01:59:38.711Z,6.50
2019-04-25T02:00:38.682Z,6.60
2019-04-25T02:01:38.658Z,6.40
2019-04-25T02:02:38.636Z,6.50
2019-04-25T02:03:38.610Z,6.50
2019-04-25T02:04:38.586Z,6.40
2019-04-25T02:05:38.560Z,7.20
2019-04-25T02:06:38.535Z,7.30
2019-04-25T02:07:38.509Z,6.70
2019-04-25T02:08:38.484Z,6.30
2019-04-25T02:09:38.459Z,6.40
2019-04-25T02:10:38.434Z,5.60
2019-04-25T02:11:38.409Z,6.00
2019-04-25T02:12:38.386Z,6.70
2019-04-25T02:13:38.360Z,6.30
2019-04-25T02:14:38.337Z,5.70
2019-04-25T02:15:38.309Z,5.50
2019-04-25T02:16:38.284Z,5.70
2019-04-25T02:17:38.259Z,5.50
2019-04-25T02:18:38.234Z,5.30
2019-04-25T02:19:38.209Z,5.00
2019-04-25T02:20:38.183Z,5.10
2019-04-25T02:21:38.157Z,5.00
2019-04-25T02:22:38.134Z,5.10
2019-04-25T02:23:38.110Z,4.80
2019-04-25T02:24:38.090Z,5.20
2019-04-25T02:25:38.060Z,5.10
2019-04-25T02:26:38.034Z,4.80
2019-04-25T02:27:38.009Z,4.90
2019-04-25T02:28:37.983Z,5.00
2019-04-25T02:29:37.959Z,5.20
2019-04-25T02:30:37.934Z,4.60
2019-04-25T02:31:37.909Z,5.40
2019-04-25T02:32:37.885Z,5.60
2019-04-25T02:33:37.858Z,6.00
2019-04-25T02:34:37.833Z,5.30
2019-04-25T02:35:37.808Z,5.00
2019-04-25T02:36:37.792Z,5.60
2019-04-25T02:37:37.769Z,5.30
2019-04-25T02:38:37.732Z,5.70
2019-04-25T02:39:37.718Z,5.40
2019-04-25T02:40:37.680Z,6.20
2019-04-25T02:41:37.654Z,5.70
2019-04-25T02:42:37.633Z,5.60
2019-04-25T02:43:37.605Z,5.80
2019-04-25T02:44:37.582Z,6.00
2019-04-25T02:45:37.569Z,5.90
2019-04-25T02:46:37.529Z,5.70
2019-04-25T02:47:37.503Z,6.00
2019-04-25T02:48:37.478Z,5.60
2019-04-25T02:49:39.621Z,5.80
2019-04-25T02:50:37.425Z,5.70
2019-04-25T02:51:37.400Z,6.30
2019-04-25T02:52:37.373Z,5.80
2019-04-25T02:53:37.676Z,5.90
2019-04-25T02:54:37.333Z,6.00
2019-04-25T02:55:37.759Z,6.40
2019-04-25T02:56:38.894Z,5.80
2019-04-25T02:57:37.258Z,6.20
2019-04-25T02:58:37.220Z,5.90
2019-04-25T02:59:37.380Z,6.50
2019-04-25T03:00:51.812Z,6.40
2019-04-25T03:01:37.144Z,5.90
2019-04-25T03:02:37.224Z,6.30
2019-04-25T03:03:37.093Z,6.40
2019-04-25T03:04:37.067Z,6.20
2019-04-25T03:05:37.053Z,6.40
2019-04-25T03:06:37.049Z,6.70
2019-04-25T03:07:37.095Z,6.20
2019-04-25T03:08:36.963Z,6.30
2019-04-25T03:09:36.938Z,6.50
2019-04-25T03:10:36.920Z,6.40
2019-04-25T03:11:36.889Z,6.10
2019-04-25T03:12:37.010Z,6.70
2019-04-25T03:13:36.833Z,6.20
2019-04-25T03:14:36.807Z,5.80
2019-04-25T03:15:36.783Z,6.30
2019-04-25T03:16:36.757Z,6.20
2019-04-25T03:17:36.738Z,6.60
2019-04-25T03:18:36.708Z,6.50
2019-04-25T03:19:36.679Z,6.60
2019-04-25T03:20:36.662Z,6.70
2019-04-25T03:21:36.632Z,6.90
2019-04-25T03:22:36.617Z,6.70
2019-04-25T03:23:36.577Z,6.80
2019-04-25T03:24:36.549Z,6.50
2019-04-25T03:25:36.522Z,6.50
2019-04-25T03:26:40.221Z,6.50
2019-04-25T03:27:36.472Z,6.70
2019-04-25T03:28:36.448Z,6.90
2019-04-25T03:29:36.418Z,6.80
2019-04-25T03:30:36.393Z,6.80
2019-04-25T03:31:36.369Z,7.10
2019-04-25T03:32:36.342Z,7.40
2019-04-25T03:33:38.447Z,7.70
2019-04-25T03:34:36.292Z,7.80
2019-04-25T03:35:36.262Z,7.20
2019-04-25T03:36:36.235Z,8.00
2019-04-25T03:37:36.227Z,7.90
2019-04-25T03:38:36.184Z,7.90
2019-04-25T03:39:36.158Z,8.20
2019-04-25T03:40:36.130Z,8.00
2019-04-25T03:41:36.106Z,8.30
2019-04-25T03:42:36.081Z,7.40
2019-04-25T03:43:36.050Z,7.70
2019-04-25T03:44:36.024Z,7.90
2019-04-25T03:45:35.998Z,7.40
2019-04-25T03:46:35.972Z,8.40
2019-04-25T03:47:35.946Z,8.70
2019-04-25T03:48:36.999Z,8.00
2019-04-25T03:49:35.892Z,7.90
2019-04-25T03:50:35.866Z,8.60
2019-04-25T03:51:35.839Z,7.60
2019-04-25T03:52:35.812Z,8.10
2019-04-25T03:53:35.787Z,8.40
2019-04-25T03:54:35.761Z,8.60
2019-04-25T03:55:35.955Z,9.50
2019-04-25T03:56:35.712Z,8.40
2019-04-25T03:57:35.679Z,8.60
2019-04-25T03:58:35.653Z,8.40
2019-04-25T03:59:35.626Z,7.90
2019-04-25T04:00:36.404Z,8.70
2019-04-25T04:01:35.573Z,8.60
2019-04-25T04:02:35.545Z,8.10
2019-04-25T04:03:35.520Z,7.50
2019-04-25T04:04:35.493Z,8.00
2019-04-25T04:05:35.466Z,7.10
2019-04-25T04:06:35.438Z,7.70
2019-04-25T04:07:35.411Z,7.80
2019-04-25T04:08:35.771Z,8.40
2019-04-25T04:09:35.359Z,7.90
2019-04-25T04:10:35.335Z,8.00
2019-04-25T04:11:35.311Z,8.10
2019-04-25T04:12:35.551Z,8.00
2019-04-25T04:13:35.257Z,8.40
2019-04-25T04:14:35.223Z,8.30
2019-04-25T04:15:35.198Z,8.80
2019-04-25T04:16:35.171Z,8.80
2019-04-25T04:17:35.144Z,8.60
2019-04-25T04:18:35.114Z,8.90
2019-04-25T04:19:35.088Z,9.40
2019-04-25T04:20:35.059Z,8.40
2019-04-25T04:21:35.033Z,8.80
2019-04-25T04:22:35.007Z,8.50
2019-04-25T04:23:34.978Z,8.80
2019-04-25T04:24:34.950Z,8.50
2019-04-25T04:25:34.922Z,8.50
2019-04-25T04:26:34.897Z,8.90
2019-04-25T04:27:35.178Z,9.80
2019-04-25T04:28:34.844Z,9.00
2019-04-25T04:29:34.816Z,9.20
2019-04-25T04:30:34.788Z,9.60
2019-04-25T04:31:34.761Z,9.40
2019-04-25T04:32:34.732Z,9.40
2019-04-25T04:33:34.737Z,9.80
2019-04-25T04:34:34.681Z,8.80
2019-04-25T04:35:34.650Z,8.90
2019-04-25T04:36:34.622Z,8.90
2019-04-25T04:37:34.599Z,8.70
2019-04-25T04:38:34.617Z,8.10
2019-04-25T04:39:34.542Z,8.40
2019-04-25T04:40:36.168Z,9.30
2019-04-25T04:41:34.486Z,8.60
2019-04-25T04:42:34.464Z,9.10
2019-04-25T04:43:34.433Z,8.90
2019-04-25T04:44:34.450Z,9.00
2019-04-25T04:45:34.576Z,9.30
2019-04-25T04:46:34.352Z,9.30
2019-04-25T04:47:34.898Z,8.90
2019-04-25T04:48:34.325Z,9.00
2019-04-25T04:49:34.279Z,9.20
2019-04-25T04:50:34.242Z,9.40
2019-04-25T04:51:34.216Z,8.60
2019-04-25T04:52:34.187Z,8.40
2019-04-25T04:53:35.841Z,9.00
2019-04-25T04:54:34.528Z,8.00
2019-04-25T04:55:34.396Z,9.00
2019-04-25T04:56:34.288Z,8.40
2019-04-25T04:57:36.164Z,8.20
2019-04-25T04:58:34.370Z,8.30
2019-04-25T04:59:33.997Z,7.70
2019-04-25T05:00:33.974Z,7.60
2019-04-25T05:01:33.948Z,7.50
2019-04-25T05:02:33.916Z,7.80
2019-04-25T05:03:34.301Z,7.60
2019-04-25T05:04:34.969Z,7.80
2019-04-25T05:05:34.421Z,7.60
2019-04-25T05:06:33.872Z,7.70
2019-04-25T05:07:33.967Z,7.90
2019-04-25T05:08:33.917Z,7.50
2019-04-25T05:09:33.727Z,7.20
2019-04-25T05:10:33.706Z,7.30
2019-04-25T05:11:33.673Z,7.30
2019-04-25T05:12:33.917Z,7.30
2019-04-25T05:13:34.252Z,7.00
2019-04-25T05:14:33.759Z,6.60
2019-04-25T05:15:33.570Z,6.50
2019-04-25T05:16:33.540Z,6.40
2019-04-25T05:17:34.232Z,6.20
2019-04-25T05:18:38.074Z,6.00
2019-04-25T05:19:33.570Z,6.60
2019-04-25T05:20:34.151Z,6.20
2019-04-25T05:21:33.717Z,5.50
2019-04-25T05:22:33.396Z,5.80
2019-04-25T05:23:34.362Z,4.90
2019-04-25T05:24:33.924Z,5.10
2019-04-25T05:25:34.497Z,4.90
2019-04-25T05:26:34.120Z,4.40
2019-04-25T05:27:46.328Z,4.50
2019-04-25T05:28:33.485Z,4.50
2019-04-25T05:29:33.989Z,4.50
2019-04-25T05:30:33.683Z,4.20
2019-04-25T05:31:34.195Z,4.30
2019-04-25T05:32:34.238Z,4.10
2019-04-25T05:33:33.807Z,4.40
2019-04-25T05:34:34.416Z,4.00
2019-04-25T05:35:33.301Z,3.90
2019-04-25T05:36:33.768Z,3.70
2019-04-25T05:37:33.576Z,3.80
2019-04-25T05:38:33.340Z,4.00
2019-04-25T05:39:33.442Z,3.70
2019-04-25T05:40:33.627Z,3.60
2019-04-25T05:41:33.771Z,3.20
2019-04-25T05:42:33.242Z,3.40
2019-04-25T05:43:33.421Z,3.40
2019-04-25T05:44:34.337Z,3.20
2019-04-25T05:45:34.028Z,3.20
2019-04-25T05:46:34.124Z,3.00
2019-04-25T05:47:33.217Z,3.20
2019-04-25T05:48:34.015Z,3.30
2019-04-25T05:49:34.247Z,3.00
2019-04-25T05:50:33.863Z,3.30
2019-04-25T05:51:33.747Z,3.10
2019-04-25T05:52:33.783Z,2.90
2019-04-25T05:53:33.398Z,3.10
2019-04-25T05:54:34.369Z,3.30
2019-04-25T05:55:34.183Z,3.20
2019-04-25T05:56:33.810Z,3.10
2019-04-25T05:57:45.244Z,3.30
2019-04-25T05:58:33.740Z,2.90
2019-04-25T05:59:33.730Z,3.00
2019-04-25T06:00:34.017Z,3.40
2019-04-25T06:01:34.316Z,2.70
2019-04-25T06:02:34.042Z,2.60
2019-04-25T06:03:33.940Z,3.00
2019-04-25T06:04:33.580Z,2.80
2019-04-25T06:05:33.480Z,3.00
2019-04-25T06:06:36.486Z,2.80
2019-04-25T06:07:33.303Z,2.70
2019-04-25T06:08:33.872Z,2.70
2019-04-25T06:09:33.769Z,2.60
2019-04-25T06:10:33.860Z,2.50
2019-04-25T06:11:33.627Z,2.40
2019-04-25T06:12:33.531Z,2.30
2019-04-25T06:13:33.366Z,2.50
2019-04-25T06:14:33.421Z,2.20
2019-04-25T06:15:33.268Z,2.00
2019-04-25T06:16:33.341Z,2.00
2019-04-25T06:17:34.207Z,2.20
2019-04-25T06:18:33.810Z,2.00
2019-04-25T06:19:33.969Z,2.00
2019-04-25T06:20:32.242Z,1.90
2019-04-25T06:21:33.551Z,1.90
2019-04-25T06:22:33.241Z,1.80
2019-04-25T06:23:32.195Z,1.90
2019-04-25T06:24:33.899Z,2.20
2019-04-25T06:25:36.292Z,2.40
2019-04-25T06:26:38.948Z,2.40
2019-04-25T06:27:32.132Z,2.20
2019-04-25T06:28:34.553Z,2.30
2019-04-25T06:29:34.547Z,2.70
2019-04-25T06:30:32.082Z,2.30
2019-04-25T06:31:33.743Z,2.50
2019-04-25T06:32:32.049Z,2.20
2019-04-25T06:33:33.719Z,2.30
2019-04-25T06:34:34.659Z,2.20
2019-04-25T06:35:32.003Z,2.00
2019-04-25T06:36:31.991Z,2.00
2019-04-25T06:37:33.602Z,2.60
2019-04-25T06:38:33.360Z,2.00
2019-04-25T06:39:32.246Z,1.90
2019-04-25T06:40:32.975Z,2.00
2019-04-25T06:41:32.202Z,1.70
2019-04-25T06:42:33.148Z,1.70
2019-04-25T06:43:33.978Z,1.90
2019-04-25T06:44:32.982Z,1.40
2019-04-25T06:45:32.723Z,1.70
2019-04-25T06:46:31.827Z,1.70
2019-04-25T06:47:31.811Z,2.00
2019-04-25T06:48:33.250Z,1.60
2019-04-25T06:49:35.960Z,2.20
2019-04-25T06:50:31.762Z,1.80
2019-04-25T06:51:32.055Z,1.80
2019-04-25T06:52:32.154Z,2.10
2019-04-25T06:53:32.990Z,1.80
2019-04-25T06:54:31.698Z,1.70
2019-04-25T06:55:32.773Z,1.80
2019-04-25T06:56:33.075Z,1.80
2019-04-25T06:57:32.041Z,1.80
2019-04-25T06:58:32.298Z,2.00
2019-04-25T06:59:33.948Z,1.80
2019-04-25T07:00:35.214Z,1.60
2019-04-25T07:01:31.590Z,1.70
2019-04-25T07:02:31.574Z,1.90
2019-04-25T07:03:31.577Z,1.70
2019-04-25T07:04:31.543Z,1.50
2019-04-25T07:05:35.910Z,1.70
2019-04-25T07:06:31.514Z,1.30
2019-04-25T07:07:31.499Z,1.80
2019-04-25T07:08:31.485Z,1.50
2019-04-25T07:09:32.829Z,1.40
2019-04-25T07:10:33.172Z,1.40
2019-04-25T07:11:32.452Z,1.60
2019-04-25T07:12:32.978Z,1.40
2019-04-25T07:13:34.175Z,1.40
2019-04-25T07:14:31.566Z,1.40
2019-04-25T07:15:32.358Z,1.40
2019-04-25T07:16:32.042Z,1.40
2019-04-25T07:17:31.351Z,1.30
2019-04-25T07:18:32.700Z,1.50
2019-04-25T07:19:32.102Z,1.50
2019-04-25T07:20:32.263Z,1.20
2019-04-25T07:21:32.307Z,1.20
2019-04-25T07:22:31.277Z,1.20
2019-04-25T07:23:31.265Z,1.20
2019-04-25T07:24:31.447Z,1.30
2019-04-25T07:25:31.237Z,1.10
2019-04-25T07:26:34.250Z,1.30
2019-04-25T07:27:31.207Z,1.00
2019-04-25T07:28:32.363Z,1.40
2019-04-25T07:29:31.176Z,1.40
2019-04-25T07:30:45.392Z,1.30
2019-04-25T07:31:31.147Z,1.40
2019-04-25T07:32:31.271Z,1.20
2019-04-25T07:33:31.281Z,1.60
2019-04-25T07:34:31.104Z,1.30
2019-04-25T07:35:31.242Z,1.40
2019-04-25T07:36:31.073Z,1.10
2019-04-25T07:37:31.059Z,1.50
2019-04-25T07:38:31.141Z,1.10
2019-04-25T07:39:31.924Z,1.20
2019-04-25T07:40:31.795Z,1.40
2019-04-25T07:41:31.478Z,1.40
2019-04-25T07:42:31.798Z,1.20
2019-04-25T07:43:32.284Z,1.40
2019-04-25T07:44:42.882Z,1.40
2019-04-25T07:45:30.941Z,1.40
2019-04-25T07:46:31.911Z,1.20
2019-04-25T07:47:31.395Z,1.20
2019-04-25T07:48:30.897Z,1.10
2019-04-25T07:49:30.882Z,1.30
2019-04-25T07:50:30.870Z,1.20
2019-04-25T07:51:30.854Z,1.20
2019-04-25T07:52:30.926Z,1.20
2019-04-25T07:53:31.552Z,1.20
2019-04-25T07:54:30.809Z,1.20
2019-04-25T07:55:31.083Z,1.10
2019-04-25T07:56:31.404Z,1.40
2019-04-25T07:57:31.245Z,1.20
2019-04-25T07:58:44.718Z,1.20
2019-04-25T07:59:31.002Z,1.20
2019-04-25T08:00:31.363Z,0.90
2019-04-25T08:01:31.090Z,1.30
2019-04-25T08:02:30.692Z,1.20
2019-04-25T08:03:30.676Z,1.00
2019-04-25T08:04:31.721Z,0.90
2019-04-25T08:05:31.409Z,1.10
2019-04-25T08:06:31.273Z,1.10
2019-04-25T08:07:31.573Z,1.10
2019-04-25T08:08:30.605Z,0.90
2019-04-25T08:09:31.439Z,0.90
2019-04-25T08:10:30.573Z,0.90
2019-04-25T08:11:30.561Z,1.00
2019-04-25T08:12:30.560Z,0.90
2019-04-25T08:13:30.531Z,0.90
2019-04-25T08:14:30.519Z,0.90
2019-04-25T08:15:30.513Z,0.90
2019-04-25T08:16:31.093Z,0.90
2019-04-25T08:17:30.553Z,1.00
2019-04-25T08:18:30.459Z,0.80
2019-04-25T08:19:31.054Z,0.90
2019-04-25T08:20:30.557Z,1.00
2019-04-25T08:21:30.673Z,0.80
2019-04-25T08:22:30.414Z,1.00
2019-04-25T08:23:32.460Z,0.90
2019-04-25T08:24:30.756Z,0.90
2019-04-25T08:25:30.801Z,0.90
2019-04-25T08:26:31.179Z,1.00
2019-04-25T08:27:31.108Z,1.00
2019-04-25T08:28:30.426Z,0.80
2019-04-25T08:29:31.577Z,1.00
2019-04-25T08:30:31.370Z,1.00
2019-04-25T08:31:31.205Z,0.90
2019-04-25T08:32:30.943Z,1.00
2019-04-25T08:33:30.234Z,1.00
2019-04-25T08:34:30.996Z,0.90
2019-04-25T08:35:30.203Z,1.00
2019-04-25T08:36:30.305Z,1.10
2019-04-25T08:37:30.438Z,1.20
2019-04-25T08:38:31.373Z,0.90
2019-04-25T08:39:30.450Z,1.10
2019-04-25T08:40:30.125Z,1.10
2019-04-25T08:41:30.972Z,1.10
2019-04-25T08:42:30.098Z,1.20
2019-04-25T08:43:30.919Z,1.10
2019-04-25T08:44:30.062Z,1.00
2019-04-25T08:45:30.639Z,1.10
2019-04-25T08:46:30.030Z,0.90
2019-04-25T08:47:30.466Z,1.10
2019-04-25T08:48:30.453Z,1.00
2019-04-25T08:49:30.408Z,1.10
2019-04-25T08:50:33.143Z,1.00
2019-04-25T08:51:31.391Z,1.00
2019-04-25T08:52:29.937Z,1.00
2019-04-25T08:53:29.921Z,1.10
2019-04-25T08:54:29.906Z,1.10
2019-04-25T08:55:29.891Z,1.00
2019-04-25T08:56:29.873Z,1.20
2019-04-25T08:57:29.858Z,1.20
2019-04-25T08:58:29.844Z,1.20
2019-04-25T08:59:36.060Z,1.20
2019-04-25T09:00:29.809Z,1.10
2019-04-25T09:01:29.796Z,1.10
2019-04-25T09:02:29.781Z,1.00
2019-04-25T09:03:29.763Z,1.20
2019-04-25T09:04:29.746Z,1.10
2019-04-25T09:05:29.755Z,1.20
2019-04-25T09:06:29.713Z,1.20
2019-04-25T09:07:29.697Z,1.10
2019-04-25T09:08:29.679Z,1.20
2019-04-25T09:09:29.665Z,1.20
2019-04-25T09:10:29.647Z,1.30
2019-04-25T09:11:32.304Z,1.30
2019-04-25T09:12:29.614Z,1.40
2019-04-25T09:13:29.599Z,1.10
2019-04-25T09:14:29.584Z,1.10
2019-04-25T09:15:29.567Z,1.40
2019-04-25T09:16:29.551Z,1.10
2019-04-25T09:17:29.535Z,1.00
2019-04-25T09:18:29.520Z,1.20
2019-04-25T09:19:29.506Z,1.30
2019-04-25T09:20:29.488Z,1.10
2019-04-25T09:21:29.474Z,1.10
2019-04-25T09:22:29.461Z,1.10
2019-04-25T09:23:29.446Z,1.20
2019-04-25T09:24:29.431Z,1.10
2019-04-25T09:25:29.415Z,1.40
2019-04-25T09:26:29.402Z,1.20
2019-04-25T09:27:29.387Z,1.10
2019-04-25T09:28:29.371Z,1.20
2019-04-25T09:29:29.360Z,1.20
2019-04-25T09:30:29.343Z,1.10
2019-04-25T09:31:29.329Z,1.10
2019-04-25T09:32:29.315Z,1.30
2019-04-25T09:33:29.302Z,1.20
2019-04-25T09:34:29.286Z,1.00
2019-04-25T09:35:29.272Z,1.10
2019-04-25T09:36:29.259Z,1.30
2019-04-25T09:37:29.246Z,1.20
2019-04-25T09:38:29.235Z,1.30
2019-04-25T09:39:29.218Z,1.20
2019-04-25T09:40:29.203Z,1.10
2019-04-25T09:41:29.190Z,1.10
2019-04-25T09:42:29.174Z,1.40
2019-04-25T09:43:29.164Z,1.30
2019-04-25T09:44:29.146Z,1.40
2019-04-25T09:45:29.139Z,1.40
2019-04-25T09:46:29.121Z,1.10
2019-04-25T09:47:29.106Z,1.30
2019-04-25T09:48:29.090Z,1.10
2019-04-25T09:49:29.078Z,1.10
2019-04-25T09:50:29.064Z,1.20
2019-04-25T09:51:29.052Z,1.10
2019-04-25T09:52:29.037Z,1.60
2019-04-25T09:53:29.021Z,1.20
2019-04-25T09:54:29.077Z,1.30
2019-04-25T09:55:28.994Z,1.40
2019-04-25T09:56:28.979Z,1.30
2019-04-25T09:57:28.964Z,1.10
2019-04-25T09:58:28.951Z,1.20
2019-04-25T09:59:30.106Z,1.30
2019-04-25T10:00:28.919Z,1.50
2019-04-25T10:01:28.907Z,1.20
2019-04-25T10:02:28.895Z,1.30
2019-04-25T10:03:28.880Z,1.20
2019-04-25T10:04:28.864Z,1.10
2019-04-25T10:05:28.848Z,1.40
2019-04-25T10:06:28.836Z,1.10
2019-04-25T10:07:28.820Z,1.10
2019-04-25T10:08:28.807Z,1.20
2019-04-25T10:09:28.792Z,1.20
2019-04-25T10:10:28.776Z,1.20
2019-04-25T10:11:28.766Z,1.30
2019-04-25T10:12:28.748Z,1.50
2019-04-25T10:13:28.735Z,1.50
2019-04-25T10:14:28.720Z,1.50
2019-04-25T10:15:28.706Z,1.60
2019-04-25T10:16:28.692Z,1.70
2019-04-25T10:17:28.678Z,1.40
2019-04-25T10:18:28.661Z,1.80
2019-04-25T10:19:28.647Z,1.80
2019-04-25T10:20:28.633Z,1.40
2019-04-25T10:21:28.618Z,1.50
2019-04-25T10:22:28.603Z,1.40
2019-04-25T10:23:28.590Z,1.30
2019-04-25T10:24:28.573Z,1.90
2019-04-25T10:25:28.559Z,1.50
2019-04-25T10:26:28.545Z,1.50
2019-04-25T10:27:28.530Z,2.00
2019-04-25T10:28:28.515Z,1.80
2019-04-25T10:29:39.326Z,1.60
2019-04-25T10:30:28.486Z,2.20
2019-04-25T10:31:28.472Z,2.30
2019-04-25T10:32:28.461Z,2.30
2019-04-25T10:33:28.442Z,1.80
2019-04-25T10:34:28.429Z,2.40
2019-04-25T10:35:28.414Z,2.20
2019-04-25T10:36:28.398Z,2.00
2019-04-25T10:37:28.384Z,2.10
2019-04-25T10:38:28.373Z,2.20
2019-04-25T10:39:28.444Z,2.40
2019-04-25T10:40:28.341Z,2.50
2019-04-25T10:41:28.326Z,2.40
2019-04-25T10:42:28.318Z,2.60
2019-04-25T10:43:28.296Z,2.40
2019-04-25T10:44:28.281Z,2.80
2019-04-25T10:45:28.267Z,2.70
2019-04-25T10:46:28.252Z,2.60
2019-04-25T10:47:28.240Z,3.00
2019-04-25T10:48:28.223Z,2.80
2019-04-25T10:49:28.206Z,2.40
2019-04-25T10:50:28.195Z,2.70
2019-04-25T10:51:28.178Z,3.30
2019-04-25T10:52:28.169Z,2.70
2019-04-25T10:53:28.149Z,2.60
2019-04-25T10:54:28.133Z,2.80
2019-04-25T10:55:28.117Z,3.00
2019-04-25T10:56:28.103Z,2.90
2019-04-25T10:57:28.088Z,3.30
2019-04-25T10:58:28.082Z,3.10
2019-04-25T10:59:28.059Z,2.90
2019-04-25T11:00:28.045Z,2.90
2019-04-25T11:01:28.029Z,2.70
2019-04-25T11:02:28.014Z,3.00
2019-04-25T11:03:28.000Z,3.00
2019-04-25T11:04:27.984Z,3.10
2019-04-25T11:05:27.970Z,2.80
2019-04-25T11:06:27.958Z,3.10
2019-04-25T11:07:27.948Z,3.30
2019-04-25T11:08:27.926Z,3.20
2019-04-25T11:09:27.911Z,3.50
2019-04-25T11:10:27.898Z,3.50
2019-04-25T11:11:27.884Z,3.60
2019-04-25T11:12:27.869Z,3.60
2019-04-25T11:13:27.853Z,3.30
2019-04-25T11:14:27.840Z,3.90
2019-04-25T11:15:27.824Z,3.20
2019-04-25T11:16:27.810Z,3.60
2019-04-25T11:17:27.810Z,3.80
2019-04-25T11:18:27.782Z,3.80
2019-04-25T11:19:27.769Z,4.10
2019-04-25T11:20:27.754Z,3.80
2019-04-25T11:21:27.740Z,3.60
2019-04-25T11:22:27.725Z,3.70
2019-04-25T11:23:27.710Z,4.00
2019-04-25T11:24:27.696Z,3.20
2019-04-25T11:25:27.683Z,3.40
2019-04-25T11:26:27.667Z,4.10
2019-04-25T11:27:27.654Z,3.80
2019-04-25T11:28:27.638Z,3.20
2019-04-25T11:29:27.624Z,3.60
2019-04-25T11:30:27.610Z,3.80
2019-04-25T11:31:27.595Z,3.40
2019-04-25T11:32:27.581Z,3.40
2019-04-25T11:33:27.566Z,3.40
2019-04-25T11:34:27.552Z,3.20
2019-04-25T11:35:27.535Z,3.60
2019-04-25T11:36:27.521Z,3.30
2019-04-25T11:37:27.507Z,3.70
2019-04-25T11:38:27.501Z,3.40
2019-04-25T11:39:27.477Z,3.30
2019-04-25T11:40:27.462Z,2.70
2019-04-25T11:41:27.447Z,3.30
2019-04-25T11:42:27.433Z,2.80
2019-04-25T11:43:27.418Z,3.00
2019-04-25T11:44:27.401Z,3.00
2019-04-25T11:45:27.393Z,2.80
2019-04-25T11:46:27.374Z,2.80
2019-04-25T11:47:27.360Z,2.80
2019-04-25T11:48:27.344Z,2.90
2019-04-25T11:49:27.330Z,2.90
2019-04-25T11:50:27.316Z,2.50
2019-04-25T11:51:27.302Z,2.50
2019-04-25T11:52:30.227Z,3.10
2019-04-25T11:53:27.272Z,2.90
2019-04-25T11:54:27.264Z,2.90
2019-04-25T11:55:27.250Z,2.90
2019-04-25T11:56:27.230Z,2.80
2019-04-25T11:57:27.218Z,2.80
2019-04-25T11:58:27.207Z,2.30
2019-04-25T11:59:27.188Z,2.20
2019-04-25T12:00:27.171Z,2.60
2019-04-25T12:01:27.158Z,2.30
2019-04-25T12:02:27.145Z,2.20
2019-04-25T12:03:27.131Z,2.70
2019-04-25T12:04:27.115Z,2.10
2019-04-25T12:05:27.102Z,2.50
2019-04-25T12:06:27.088Z,2.10
2019-04-25T12:07:27.073Z,2.10
2019-04-25T12:08:27.060Z,2.20
2019-04-25T12:09:27.045Z,2.00
2019-04-25T12:10:27.031Z,2.20
2019-04-25T12:11:27.019Z,2.40
2019-04-25T12:12:27.004Z,2.10
2019-04-25T12:13:26.989Z,2.20
2019-04-25T12:14:26.975Z,2.00
2019-04-25T12:15:26.961Z,2.20
2019-04-25T12:16:26.948Z,1.50
2019-04-25T12:17:26.934Z,1.30
2019-04-25T12:18:26.920Z,1.20
2019-04-25T12:19:34.494Z,1.20
2019-04-25T12:20:26.894Z,1.20
2019-04-25T12:21:26.878Z,1.20
2019-04-25T12:22:26.872Z,1.30
2019-04-25T12:23:26.853Z,1.20
2019-04-25T12:24:26.838Z,1.40
2019-04-25T12:25:26.826Z,1.60
2019-04-25T12:26:26.811Z,1.60
2019-04-25T12:27:26.797Z,1.50
2019-04-25T12:28:26.783Z,1.60
2019-04-25T12:29:26.771Z,1.60
2019-04-25T12:30:37.475Z,1.60
2019-04-25T12:31:26.742Z,1.50
2019-04-25T12:32:26.730Z,1.70
2019-04-25T12:33:26.715Z,1.60
2019-04-25T12:34:26.700Z,1.60
2019-04-25T12:35:26.688Z,1.70
2019-04-25T12:36:26.674Z,1.60
2019-04-25T12:37:26.660Z,1.60
2019-04-25T12:38:26.646Z,1.40
2019-04-25T12:39:26.635Z,1.40
2019-04-25T12:40:26.618Z,1.40
2019-04-25T12:41:26.609Z,1.40
2019-04-25T12:42:26.593Z,1.20
2019-04-25T12:43:26.580Z,1.30
2019-04-25T12:44:26.563Z,1.20
2019-04-25T12:45:26.550Z,1.30
2019-04-25T12:46:26.536Z,1.40
2019-04-25T12:47:26.522Z,1.50
2019-04-25T12:48:26.507Z,1.80
2019-04-25T12:49:26.494Z,1.40
2019-04-25T12:50:26.478Z,1.30
2019-04-25T12:51:26.465Z,1.50
2019-04-25T12:52:26.451Z,1.70
2019-04-25T12:53:26.436Z,1.20
2019-04-25T12:54:26.423Z,1.30
2019-04-25T12:55:26.409Z,1.20
2019-04-25T12:56:26.394Z,1.30
2019-04-25T12:57:26.382Z,1.10
2019-04-25T12:58:26.366Z,1.20
2019-04-25T12:59:26.353Z,1.30
2019-04-25T13:00:26.339Z,1.30
2019-04-25T13:01:26.325Z,1.30
2019-04-25T13:02:26.310Z,1.00
2019-04-25T13:03:26.296Z,1.20
2019-04-25T13:04:26.281Z,1.20
2019-04-25T13:05:26.268Z,1.20
2019-04-25T13:06:26.254Z,1.10
2019-04-25T13:07:26.240Z,1.00
2019-04-25T13:08:26.226Z,1.10
2019-04-25T13:09:26.212Z,1.00
2019-04-25T13:10:26.197Z,1.30
2019-04-25T13:11:26.184Z,1.00
2019-04-25T13:12:26.169Z,1.10
2019-04-25T13:13:26.163Z,1.30
2019-04-25T13:14:26.142Z,1.30
2019-04-25T13:15:27.027Z,1.40